Aviation Digital Data Service (ADDS)

Output produced by METARs form (0305 UTC 22 April 2019)
found at http://www.aviationweather.gov/metar/data/
 
METAR text: FAKM 211800Z 20004KT 9999 -RA FEW020 OVC100 14/12 Q1022 RETS
Conditions at: FAKM (KIMBERLEY/BJ VOR, ZA) observed 1800 UTC 21 April 2019
Temperature: 14.0°C (57°F)
Dewpoint: 12.0°C (54°F) [RH = 88%]
Pressure (altimeter): 30.18 inches Hg (1022.0 mb)
Winds: from the SSW (200 degrees) at 5 MPH (4 knots; 2.1 m/s)
Visibility: 6 or more miles (10+ km)
Ceiling: 10000 feet AGL
Clouds: few clouds at 2000 feet AGL
overcast cloud deck at 10000 feet AGL
Weather: -RA  (light rain)

METAR text: FAKM 211700Z 25005KT 9999 TSRA SCT015 FEW020CB OVC100 14/13 Q1022 RETS
Conditions at: FAKM (KIMBERLEY/BJ VOR, ZA) observed 1700 UTC 21 April 2019
Temperature: 14.0°C (57°F)
Dewpoint: 13.0°C (55°F) [RH = 94%]
Pressure (altimeter): 30.18 inches Hg (1022.0 mb)
Winds: from the WSW (250 degrees) at 6 MPH (5 knots; 2.6 m/s)
Visibility: 6 or more miles (10+ km)
Ceiling: 10000 feet AGL
Clouds: scattered clouds at 1500 feet AGL
few clouds at 2000 feet AGL
overcast cloud deck at 10000 feet AGL
Weather: TSRA  (rain associated with thunderstorm(s))

METAR text: FAKM 211500Z 05007KT 9999 TSRA SCT010 OVC100 FEW015CB 16/14 Q////
Conditions at: FAKM (KIMBERLEY/BJ VOR, ZA) observed 1500 UTC 21 April 2019
Temperature: 16.0°C (61°F)
Dewpoint: 14.0°C (57°F) [RH = 88%]
Pressure (altimeter): missing
Winds: from the NE (50 degrees) at 8 MPH (7 knots; 3.6 m/s)
Visibility: 6 or more miles (10+ km)
Ceiling: 10000 feet AGL
Clouds: scattered clouds at 1000 feet AGL
overcast cloud deck at 10000 feet AGL
few clouds at 1500 feet AGL
Weather: TSRA  (rain associated with thunderstorm(s))

METAR text: FAKM 211400Z 36012KT 9999 TSRA FEW020CB SCT015 0VC100 16/14 Q1021
Conditions at: FAKM (KIMBERLEY/BJ VOR, ZA) observed 1400 UTC 21 April 2019
Temperature: 16.0°C (61°F)
Dewpoint: 14.0°C (57°F) [RH = 88%]
Pressure (altimeter): 30.15 inches Hg (1021.0 mb)
Winds: from the N (360 degrees) at 14 MPH (12 knots; 6.2 m/s)
Visibility: 6 or more miles (10+ km)
Ceiling: at least 12,000 feet AGL
Clouds: few clouds at 2000 feet AGL
scattered clouds at 1500 feet AGL
Weather: TSRA  (rain associated with thunderstorm(s))

METAR text: FAKM 211300Z 02011KT 9999 TSRA FEW020CB SCT015 0VC100 18/13 Q1021
Conditions at: FAKM (KIMBERLEY/BJ VOR, ZA) observed 1300 UTC 21 April 2019
Temperature: 18.0°C (64°F)
Dewpoint: 13.0°C (55°F) [RH = 73%]
Pressure (altimeter): 30.15 inches Hg (1021.0 mb)
Winds: from the NNE (20 degrees) at 13 MPH (11 knots; 5.7 m/s)
Visibility: 6 or more miles (10+ km)
Ceiling: at least 12,000 feet AGL
Clouds: few clouds at 2000 feet AGL
scattered clouds at 1500 feet AGL
Weather: TSRA  (rain associated with thunderstorm(s))

METAR text: FAKM 211200Z 03011KT 9999 SCT015 BKN080 21/13 Q1021
Conditions at: FAKM (KIMBERLEY/BJ VOR, ZA) observed 1200 UTC 21 April 2019
Temperature: 21.0°C (70°F)
Dewpoint: 13.0°C (55°F) [RH = 60%]
Pressure (altimeter): 30.15 inches Hg (1021.0 mb)
Winds: from the NNE (30 degrees) at 13 MPH (11 knots; 5.7 m/s)
Visibility: 6 or more miles (10+ km)
Ceiling: 8000 feet AGL
Clouds: scattered clouds at 1500 feet AGL
broken clouds at 8000 feet AGL
Weather: no significant weather observed at this time

METAR text: FAKM 211100Z 04013KT 9999 FEW020 SCT090 21/13 Q1021
Conditions at: FAKM (KIMBERLEY/BJ VOR, ZA) observed 1100 UTC 21 April 2019
Temperature: 21.0°C (70°F)
Dewpoint: 13.0°C (55°F) [RH = 60%]
Pressure (altimeter): 30.15 inches Hg (1021.0 mb)
Winds: from the NE (40 degrees) at 15 MPH (13 knots; 6.7 m/s)
Visibility: 6 or more miles (10+ km)
Ceiling: at least 12,000 feet AGL
Clouds: few clouds at 2000 feet AGL
scattered clouds at 9000 feet AGL
Weather: no significant weather observed at this time

METAR text: FAKM 211000Z 05014KT 9999 FEW020 BKN090 18/12 Q1023
Conditions at: FAKM (KIMBERLEY/BJ VOR, ZA) observed 1000 UTC 21 April 2019
Temperature: 18.0°C (64°F)
Dewpoint: 12.0°C (54°F) [RH = 68%]
Pressure (altimeter): 30.21 inches Hg (1023.0 mb)
Winds: from the NE (50 degrees) at 16 MPH (14 knots; 7.2 m/s)
Visibility: 6 or more miles (10+ km)
Ceiling: 9000 feet AGL
Clouds: few clouds at 2000 feet AGL
broken clouds at 9000 feet AGL
Weather: no significant weather observed at this time

METAR text: FAKM 210900Z 05009KT 9999 FEW030 BKN090 17/13 Q1023
Conditions at: FAKM (KIMBERLEY/BJ VOR, ZA) observed 0900 UTC 21 April 2019
Temperature: 17.0°C (63°F)
Dewpoint: 13.0°C (55°F) [RH = 77%]
Pressure (altimeter): 30.21 inches Hg (1023.0 mb)
Winds: from the NE (50 degrees) at 10 MPH (9 knots; 4.6 m/s)
Visibility: 6 or more miles (10+ km)
Ceiling: 9000 feet AGL
Clouds: few clouds at 3000 feet AGL
broken clouds at 9000 feet AGL
Weather: no significant weather observed at this time

METAR text: FAKM 210800Z 04008KT 9999 FEW030 BKN090 16/13 Q1023
Conditions at: FAKM (KIMBERLEY/BJ VOR, ZA) observed 0800 UTC 21 April 2019
Temperature: 16.0°C (61°F)
Dewpoint: 13.0°C (55°F) [RH = 82%]
Pressure (altimeter): 30.21 inches Hg (1023.0 mb)
Winds: from the NE (40 degrees) at 9 MPH (8 knots; 4.1 m/s)
Visibility: 6 or more miles (10+ km)
Ceiling: 9000 feet AGL
Clouds: few clouds at 3000 feet AGL
broken clouds at 9000 feet AGL
Weather: no significant weather observed at this time

METAR text: FAKM 210700Z 05010KT 9999 FEW025 BKN090 15/13 Q1023 REDZ
Conditions at: FAKM (KIMBERLEY/BJ VOR, ZA) observed 0700 UTC 21 April 2019
Temperature: 15.0°C (59°F)
Dewpoint: 13.0°C (55°F) [RH = 88%]
Pressure (altimeter): 30.21 inches Hg (1023.0 mb)
Winds: from the NE (50 degrees) at 12 MPH (10 knots; 5.1 m/s)
Visibility: 6 or more miles (10+ km)
Ceiling: 9000 feet AGL
Clouds: few clouds at 2500 feet AGL
broken clouds at 9000 feet AGL
Weather: no significant weather observed at this time

METAR text: FAKM 210600Z 05008KT 9999 -DZ FEW025 BKN080 15/13 Q1023 RERA
Conditions at: FAKM (KIMBERLEY/BJ VOR, ZA) observed 0600 UTC 21 April 2019
Temperature: 15.0°C (59°F)
Dewpoint: 13.0°C (55°F) [RH = 88%]
Pressure (altimeter): 30.21 inches Hg (1023.0 mb)
Winds: from the NE (50 degrees) at 9 MPH (8 knots; 4.1 m/s)
Visibility: 6 or more miles (10+ km)
Ceiling: 8000 feet AGL
Clouds: few clouds at 2500 feet AGL
broken clouds at 8000 feet AGL
Weather: -DZ  (light drizzle)

METAR text: FAKM 210500Z 31008KT 9999 -RA FEW025 FEW030CB OVC080 15/13 Q1023 RETS
Conditions at: FAKM (KIMBERLEY/BJ VOR, ZA) observed 0500 UTC 21 April 2019
Temperature: 15.0°C (59°F)
Dewpoint: 13.0°C (55°F) [RH = 88%]
Pressure (altimeter): 30.21 inches Hg (1023.0 mb)
Winds: from the NW (310 degrees) at 9 MPH (8 knots; 4.1 m/s)
Visibility: 6 or more miles (10+ km)
Ceiling: 8000 feet AGL
Clouds: few clouds at 2500 feet AGL
few clouds at 3000 feet AGL
overcast cloud deck at 8000 feet AGL
Weather: -RA  (light rain)

METAR text: FAKM 210400Z 35011KT 9999 -TSRA SCT030 FEW035CB OVC090 14/12 Q1023
Conditions at: FAKM (KIMBERLEY/BJ VOR, ZA) observed 0400 UTC 21 April 2019
Temperature: 14.0°C (57°F)
Dewpoint: 12.0°C (54°F) [RH = 88%]
Pressure (altimeter): 30.21 inches Hg (1023.0 mb)
Winds: from the N (350 degrees) at 13 MPH (11 knots; 5.7 m/s)
Visibility: 6 or more miles (10+ km)
Ceiling: 9000 feet AGL
Clouds: scattered clouds at 3000 feet AGL
few clouds at 3500 feet AGL
overcast cloud deck at 9000 feet AGL
Weather: -TSRA  (light rain associated with thunderstorm(s))

METAR text: FAKM 210300Z 02010KT 9999 TS SCT030 FEW035CB OVC090 15/13 Q1020 RERA
Conditions at: FAKM (KIMBERLEY/BJ VOR, ZA) observed 0300 UTC 21 April 2019
Temperature: 15.0°C (59°F)
Dewpoint: 13.0°C (55°F) [RH = 88%]
Pressure (altimeter): 30.12 inches Hg (1020.0 mb)
Winds: from the NNE (20 degrees) at 12 MPH (10 knots; 5.1 m/s)
Visibility: 6 or more miles (10+ km)
Ceiling: 9000 feet AGL
Clouds: scattered clouds at 3000 feet AGL
few clouds at 3500 feet AGL
overcast cloud deck at 9000 feet AGL
Weather: TS  (thunderstorm)

METAR text: FAKM 201800Z 32003KT 9999 TS SCT040 FEW050CB SCT100 19/14 Q1019
Conditions at: FAKM (KIMBERLEY/BJ VOR, ZA) observed 1800 UTC 20 April 2019
Temperature: 19.0°C (66°F)
Dewpoint: 14.0°C (57°F) [RH = 73%]
Pressure (altimeter): 30.09 inches Hg (1019.0 mb)
Winds: from the NW (320 degrees) at 3 MPH (3 knots; 1.5 m/s)
Visibility: 6 or more miles (10+ km)
Ceiling: at least 12,000 feet AGL
Clouds: scattered clouds at 4000 feet AGL
few clouds at 5000 feet AGL
scattered clouds at 10000 feet AGL
Weather: TS  (thunderstorm)

METAR text: FAKM 201700Z 03007KT 9999 TS SCT040 FEW050CB SCT100 19/12 Q1020
Conditions at: FAKM (KIMBERLEY/BJ VOR, ZA) observed 1700 UTC 20 April 2019
Temperature: 19.0°C (66°F)
Dewpoint: 12.0°C (54°F) [RH = 64%]
Pressure (altimeter): 30.12 inches Hg (1020.0 mb)
Winds: from the NNE (30 degrees) at 8 MPH (7 knots; 3.6 m/s)
Visibility: 6 or more miles (10+ km)
Ceiling: at least 12,000 feet AGL
Clouds: scattered clouds at 4000 feet AGL
few clouds at 5000 feet AGL
scattered clouds at 10000 feet AGL
Weather: TS  (thunderstorm)

METAR text: FAKM 201600Z 02004KT 9999 TS SCT040 FEW050CB SCT100 19/14 Q1019 RERA
Conditions at: FAKM (KIMBERLEY/BJ VOR, ZA) observed 1600 UTC 20 April 2019
Temperature: 19.0°C (66°F)
Dewpoint: 14.0°C (57°F) [RH = 73%]
Pressure (altimeter): 30.09 inches Hg (1019.0 mb)
Winds: from the NNE (20 degrees) at 5 MPH (4 knots; 2.1 m/s)
Visibility: 6 or more miles (10+ km)
Ceiling: at least 12,000 feet AGL
Clouds: scattered clouds at 4000 feet AGL
few clouds at 5000 feet AGL
scattered clouds at 10000 feet AGL
Weather: TS  (thunderstorm)